Time;durP1;ratioP1;P1;durP2;ratioP2;P2;SDS_P1;SDS_P2;PMS_P1;PMS_P2;Temp;Humidity;BMP_temperature;BMP_pressure;BME280_temperature;BME280_humidity;BME280_pressure;Samples;Min_cycle;Max_cycle;Signal;HPM_P1;HPM_P2
2021/08/20 00:01:25;;;;;;;4.07;3.00;;;16.20;99.90;;;;;;5074181;28;20216;-90
2021/08/20 00:03:51;;;;;;;3.13;2.57;;;16.20;99.90;;;;;;5073911;28;20177;-90
2021/08/20 00:06:16;;;;;;;5.10;3.20;;;16.20;99.90;;;;;;5073784;28;20196;-91
2021/08/20 00:08:42;;;;;;;4.50;2.90;;;16.20;99.90;;;;;;5073691;28;20203;-90
2021/08/20 00:11:08;;;;;;;5.17;3.60;;;16.30;99.90;;;;;;5073688;28;20239;-90
2021/08/20 00:13:33;;;;;;;3.30;2.77;;;16.30;99.90;;;;;;5074571;28;20688;-90
2021/08/20 00:15:59;;;;;;;4.57;3.30;;;16.20;99.90;;;;;;5073193;28;20215;-90
2021/08/20 00:18:26;;;;;;;3.83;3.37;;;16.20;99.90;;;;;;5073589;28;20168;-90
2021/08/20 00:20:52;;;;;;;3.97;2.87;;;16.20;99.90;;;;;;5080581;28;20207;-90
2021/08/20 00:23:18;;;;;;;7.43;3.20;;;16.20;99.90;;;;;;5076850;28;20180;-90
2021/08/20 00:25:44;;;;;;;5.40;3.03;;;16.20;99.90;;;;;;5084151;28;20185;-90
2021/08/20 00:28:10;;;;;;;8.63;3.50;;;16.20;99.90;;;;;;5074764;28;20205;-90
2021/08/20 00:30:35;;;;;;;5.97;2.87;;;16.20;99.90;;;;;;5073348;28;20204;-90
2021/08/20 00:33:01;;;;;;;3.57;2.93;;;16.20;99.90;;;;;;5073244;28;20326;-90
2021/08/20 00:35:28;;;;;;;4.47;3.17;;;16.10;99.90;;;;;;5073408;28;20177;-90
2021/08/20 00:37:54;;;;;;;3.57;3.10;;;16.10;99.90;;;;;;5073876;28;20200;-90
2021/08/20 00:40:19;;;;;;;3.73;2.90;;;16.10;99.90;;;;;;5073354;28;20185;-90
2021/08/20 00:42:46;;;;;;;7.73;3.27;;;16.10;99.90;;;;;;5073172;28;20271;-90
2021/08/20 00:45:12;;;;;;;3.20;2.83;;;16.10;99.90;;;;;;5074434;28;20192;-90
2021/08/20 00:47:38;;;;;;;3.97;3.57;;;16.00;99.90;;;;;;5073227;28;20197;-90
2021/08/20 00:50:05;;;;;;;3.93;3.20;;;16.00;99.90;;;;;;5073080;28;20573;-90
2021/08/20 00:52:32;;;;;;;4.10;3.37;;;16.00;99.90;;;;;;5074138;28;20215;-90
2021/08/20 00:54:58;;;;;;;6.30;3.60;;;15.90;99.90;;;;;;5073100;28;20183;-90
2021/08/20 00:57:23;;;;;;;4.70;3.40;;;15.90;99.90;;;;;;5072905;28;20196;-90
2021/08/20 00:59:49;;;;;;;4.50;3.70;;;15.90;99.90;;;;;;5073921;28;20177;-90
2021/08/20 01:02:18;;;;;;;6.23;3.77;;;15.90;99.90;;;;;;5072980;28;20185;-90
2021/08/20 01:04:45;;;;;;;6.20;3.47;;;15.90;99.90;;;;;;5073167;28;20180;-90
2021/08/20 01:07:11;;;;;;;4.13;3.73;;;15.80;99.90;;;;;;5072693;28;20568;-90
2021/08/20 01:09:37;;;;;;;4.07;3.17;;;15.80;99.90;;;;;;5073007;28;20193;-90
2021/08/20 01:12:05;;;;;;;4.87;3.33;;;15.80;99.90;;;;;;5072724;28;20187;-90
2021/08/20 01:14:33;;;;;;;4.93;3.27;;;15.80;99.90;;;;;;5072784;28;20326;-90
2021/08/20 01:17:01;;;;;;;3.83;3.17;;;15.80;99.90;;;;;;5073544;28;20334;-90
2021/08/20 01:19:27;;;;;;;5.23;3.33;;;15.80;99.90;;;;;;5073887;28;20282;-90
2021/08/20 01:21:53;;;;;;;4.27;3.33;;;15.80;99.90;;;;;;5073800;28;20208;-90
2021/08/20 01:24:20;;;;;;;3.97;3.23;;;15.80;99.90;;;;;;5078533;28;20200;-90
2021/08/20 01:26:47;;;;;;;3.67;2.93;;;15.80;99.90;;;;;;5074056;28;20283;-90
2021/08/20 01:29:16;;;;;;;4.37;3.50;;;15.80;99.90;;;;;;5073192;28;20562;-90
2021/08/20 01:31:43;;;;;;;4.63;3.47;;;15.80;99.90;;;;;;5076313;28;20287;-90
2021/08/20 01:34:09;;;;;;;3.73;3.27;;;15.80;99.90;;;;;;5077662;28;20184;-90
2021/08/20 01:36:35;;;;;;;4.10;3.10;;;15.90;99.90;;;;;;5076084;28;20197;-90
2021/08/20 01:39:00;;;;;;;4.00;2.93;;;15.90;99.90;;;;;;5077525;28;20180;-90
2021/08/20 01:41:27;;;;;;;4.43;3.20;;;15.90;99.90;;;;;;5076121;28;20295;-89
2021/08/20 01:43:54;;;;;;;3.50;2.80;;;15.80;99.90;;;;;;5076088;28;20189;-89
2021/08/20 01:46:20;;;;;;;3.93;3.27;;;15.80;99.90;;;;;;5075903;28;20796;-90
2021/08/20 01:48:54;;;;;;;4.43;3.33;;;15.80;99.90;;;;;;5076147;28;20188;-90
2021/08/20 01:51:27;;;;;;;3.53;3.03;;;15.80;99.90;;;;;;5076046;28;20286;-90
2021/08/20 01:53:54;;;;;;;5.73;3.57;;;15.80;99.90;;;;;;5077154;28;20752;-90
2021/08/20 01:56:27;;;;;;;4.27;3.07;;;15.80;99.90;;;;;;5075624;28;20197;-90
2021/08/20 01:58:54;;;;;;;5.10;3.23;;;15.70;99.90;;;;;;5075801;28;20177;-90
2021/08/20 02:01:20;;;;;;;5.67;3.50;;;15.70;99.90;;;;;;5075719;28;20326;-90
2021/08/20 02:03:46;;;;;;;4.80;3.27;;;15.70;99.90;;;;;;5075821;28;20200;-90
2021/08/20 02:06:12;;;;;;;5.93;3.63;;;15.70;99.90;;;;;;5075831;28;20589;-90
2021/08/20 02:08:38;;;;;;;4.43;3.50;;;15.80;99.90;;;;;;5076853;28;20579;-90
2021/08/20 02:11:03;;;;;;;3.60;3.07;;;15.80;99.90;;;;;;5075672;28;20199;-90
2021/08/20 02:13:30;;;;;;;3.43;3.00;;;15.70;99.90;;;;;;5075767;28;20713;-90
2021/08/20 02:15:56;;;;;;;4.93;3.57;;;15.80;99.90;;;;;;5075832;28;20180;-90
2021/08/20 02:18:22;;;;;;;4.43;3.50;;;15.80;99.90;;;;;;5075707;28;20173;-90
2021/08/20 02:20:48;;;;;;;4.20;3.77;;;15.70;99.90;;;;;;5075579;28;20181;-90
2021/08/20 02:23:14;;;;;;;5.27;4.03;;;15.70;99.90;;;;;;5075529;28;20184;-90
2021/08/20 02:25:40;;;;;;;4.60;3.97;;;15.70;99.90;;;;;;5075537;28;20216;-90
2021/08/20 02:28:06;;;;;;;4.27;3.70;;;15.70;99.90;;;;;;5076651;28;20220;-90
2021/08/20 02:30:32;;;;;;;5.17;3.90;;;15.70;99.90;;;;;;5075556;28;20269;-89
2021/08/20 02:32:58;;;;;;;5.60;4.20;;;15.70;99.90;;;;;;5075299;28;20169;-90
2021/08/20 02:35:24;;;;;;;5.13;4.03;;;15.80;99.90;;;;;;5075542;28;20229;-90
2021/08/20 02:37:51;;;;;;;5.23;3.80;;;15.80;99.90;;;;;;5075471;28;20192;-90
2021/08/20 02:40:17;;;;;;;5.73;3.13;;;15.70;99.90;;;;;;5074994;28;20727;-90
2021/08/20 02:42:42;;;;;;;3.93;3.50;;;15.70;99.90;;;;;;5076414;28;20224;-89
2021/08/20 02:45:08;;;;;;;10.20;4.53;;;15.70;99.90;;;;;;5075264;28;20184;-90
2021/08/20 02:47:34;;;;;;;4.63;3.83;;;15.70;99.90;;;;;;5076678;28;20551;-90
2021/08/20 02:50:00;;;;;;;5.20;3.70;;;15.70;99.90;;;;;;5075171;28;20619;-90
2021/08/20 02:52:26;;;;;;;4.80;4.30;;;15.70;99.90;;;;;;5074834;28;20177;-89
2021/08/20 02:54:52;;;;;;;5.63;4.10;;;15.70;99.90;;;;;;5074866;28;20184;-90
2021/08/20 02:57:17;;;;;;;6.00;4.10;;;15.70;99.90;;;;;;5074839;28;20196;-90
2021/08/20 02:59:43;;;;;;;6.50;4.50;;;15.70;99.90;;;;;;5074654;28;20180;-89
2021/08/20 03:02:08;;;;;;;6.27;4.17;;;15.70;99.90;;;;;;5075245;28;20679;-90
2021/08/20 03:04:34;;;;;;;5.13;3.77;;;15.70;99.90;;;;;;5074592;28;20651;-90
2021/08/20 03:07:00;;;;;;;7.83;4.50;;;15.60;99.90;;;;;;5074602;28;20673;-90
2021/08/20 03:09:25;;;;;;;6.83;4.40;;;15.60;99.90;;;;;;5074852;28;20334;-89
2021/08/20 03:11:51;;;;;;;4.83;4.00;;;15.60;99.90;;;;;;5075160;28;20265;-90
2021/08/20 03:14:17;;;;;;;6.37;3.83;;;15.50;99.90;;;;;;5076246;28;20201;-90
2021/08/20 03:16:43;;;;;;;5.73;4.60;;;15.60;99.90;;;;;;5074979;28;20192;-90
2021/08/20 03:19:09;;;;;;;10.10;4.53;;;15.50;99.90;;;;;;5075167;28;20176;-90
2021/08/20 03:21:35;;;;;;;4.73;3.83;;;15.50;99.90;;;;;;5074789;28;20185;-90
2021/08/20 03:24:01;;;;;;;6.53;4.60;;;15.40;99.90;;;;;;5074973;28;20661;-90
2021/08/20 03:26:26;;;;;;;6.47;4.30;;;15.40;99.90;;;;;;5074937;28;20207;-89
2021/08/20 03:28:52;;;;;;;5.20;4.20;;;15.40;99.90;;;;;;5076810;28;20181;-89
2021/08/20 03:31:20;;;;;;;5.93;4.43;;;15.40;99.90;;;;;;5075738;28;20214;-89
2021/08/20 03:33:46;;;;;;;6.17;4.67;;;15.40;99.90;;;;;;5076879;28;20215;-89
2021/08/20 03:36:12;;;;;;;5.47;4.43;;;15.30;99.90;;;;;;5079086;28;20177;-90
2021/08/20 03:38:38;;;;;;;7.30;4.47;;;15.30;99.90;;;;;;5082786;28;20185;-90
2021/08/20 03:41:06;;;;;;;5.57;4.70;;;15.40;99.90;;;;;;5089787;28;20268;-92
2021/08/20 03:43:32;;;;;;;5.33;4.83;;;15.40;99.90;;;;;;5084522;28;20187;-90
2021/08/20 03:45:58;;;;;;;9.67;4.83;;;15.40;99.90;;;;;;5082951;28;20251;-90
2021/08/20 03:48:24;;;;;;;5.70;4.90;;;15.40;99.90;;;;;;5081545;28;20230;-90
2021/08/20 03:50:49;;;;;;;11.00;5.10;;;15.40;99.90;;;;;;5083864;28;20224;-90
2021/08/20 03:53:15;;;;;;;6.30;4.77;;;15.40;99.90;;;;;;5084242;28;20635;-90
2021/08/20 03:55:43;;;;;;;8.33;5.40;;;15.40;99.90;;;;;;5086807;28;20183;-90
2021/08/20 03:58:10;;;;;;;5.73;4.57;;;15.40;99.90;;;;;;5087809;28;20197;-90
2021/08/20 04:00:37;;;;;;;7.43;4.60;;;15.40;99.90;;;;;;5088029;28;20177;-90
2021/08/20 04:03:03;;;;;;;5.20;4.40;;;15.40;99.90;;;;;;5083061;28;20189;-90
2021/08/20 04:05:29;;;;;;;6.37;4.60;;;15.40;99.90;;;;;;5083916;28;20275;-90
2021/08/20 04:07:54;;;;;;;8.97;4.73;;;15.40;99.90;;;;;;5086057;28;20294;-90
2021/08/20 04:10:20;;;;;;;5.80;4.57;;;15.40;99.90;;;;;;5075635;28;20222;-89
2021/08/20 04:12:45;;;;;;;5.50;4.47;;;15.40;99.90;;;;;;5080014;28;20183;-89
2021/08/20 04:15:11;;;;;;;6.63;5.13;;;15.40;99.90;;;;;;5076414;28;20566;-90
2021/08/20 04:17:37;;;;;;;7.57;4.40;;;15.50;99.90;;;;;;5074806;28;20593;-89
2021/08/20 04:20:03;;;;;;;6.10;4.30;;;15.50;99.90;;;;;;5075069;28;20650;-89
2021/08/20 04:22:29;;;;;;;6.33;4.73;;;15.50;99.90;;;;;;5074627;28;20189;-89
2021/08/20 04:24:54;;;;;;;5.57;4.80;;;15.50;99.90;;;;;;5074812;28;20189;-89
2021/08/20 04:27:20;;;;;;;6.97;4.80;;;15.50;99.90;;;;;;5074545;28;20205;-90
2021/08/20 04:29:46;;;;;;;7.10;4.73;;;15.50;99.90;;;;;;5074441;28;20631;-89
2021/08/20 04:32:11;;;;;;;7.13;5.40;;;15.50;99.90;;;;;;5074526;28;20177;-89
2021/08/20 04:34:37;;;;;;;8.47;5.03;;;15.50;99.90;;;;;;5075101;28;20184;-90
2021/08/20 04:37:03;;;;;;;6.70;5.03;;;15.50;99.90;;;;;;5078580;28;20204;-90
2021/08/20 04:39:28;;;;;;;6.40;5.00;;;15.50;99.90;;;;;;5075581;28;20173;-89
2021/08/20 04:41:54;;;;;;;9.33;5.27;;;15.40;99.90;;;;;;5078010;28;20176;-89
2021/08/20 04:44:20;;;;;;;6.60;4.33;;;15.40;99.90;;;;;;5077344;28;20181;-90
2021/08/20 04:46:45;;;;;;;6.00;4.60;;;15.40;99.90;;;;;;5075286;28;20204;-90
2021/08/20 04:49:11;;;;;;;5.67;4.40;;;15.40;99.90;;;;;;5074770;28;20181;-90
2021/08/20 04:51:37;;;;;;;8.07;5.07;;;15.40;99.90;;;;;;5074838;28;20204;-89
2021/08/20 04:54:02;;;;;;;5.53;4.50;;;15.40;99.90;;;;;;5075062;28;20173;-89
2021/08/20 04:56:28;;;;;;;9.43;4.77;;;15.40;99.90;;;;;;5074551;28;20192;-90
2021/08/20 04:58:54;;;;;;;5.83;5.00;;;15.40;99.90;;;;;;5074920;28;20184;-90
2021/08/20 05:01:19;;;;;;;6.57;4.43;;;15.40;99.90;;;;;;5075040;28;20191;-91
2021/08/20 05:03:46;;;;;;;6.33;4.80;;;15.40;99.90;;;;;;5076916;28;20657;-90
2021/08/20 05:06:12;;;;;;;6.90;4.90;;;15.40;99.90;;;;;;5078966;28;20207;-90
2021/08/20 05:08:39;;;;;;;5.63;4.57;;;15.40;99.90;;;;;;5079436;28;20654;-90
2021/08/20 05:11:05;;;;;;;5.30;4.80;;;15.40;99.90;;;;;;5079461;28;20211;-91
2021/08/20 05:13:31;;;;;;;5.53;4.37;;;15.50;99.90;;;;;;5078761;28;20282;-90
2021/08/20 05:15:57;;;;;;;6.70;5.10;;;15.50;99.90;;;;;;5079255;28;20177;-90
2021/08/20 05:18:23;;;;;;;8.07;5.23;;;15.50;99.90;;;;;;5078934;28;20181;-90
2021/08/20 05:20:49;;;;;;;7.60;5.13;;;15.50;99.90;;;;;;5079339;28;20224;-90
2021/08/20 05:23:14;;;;;;;6.67;4.97;;;15.50;99.90;;;;;;5078918;28;20196;-90
2021/08/20 05:25:40;;;;;;;8.03;5.27;;;15.50;99.90;;;;;;5078685;28;20181;-90
2021/08/20 05:28:09;;;;;;;6.87;5.60;;;15.50;99.90;;;;;;5079511;28;20204;-90
2021/08/20 05:30:34;;;;;;;6.33;5.13;;;15.50;99.90;;;;;;5079824;28;20566;-90
2021/08/20 05:33:00;;;;;;;6.87;5.37;;;15.60;99.90;;;;;;5079182;28;20184;-90
2021/08/20 05:35:26;;;;;;;10.57;5.10;;;15.60;99.90;;;;;;5079498;28;20284;-90
2021/08/20 05:37:52;;;;;;;8.70;5.60;;;15.70;99.90;;;;;;5079056;28;20197;-89
2021/08/20 05:40:18;;;;;;;7.70;4.57;;;15.70;99.90;;;;;;5080662;28;20187;-90
2021/08/20 05:42:44;;;;;;;5.87;4.77;;;15.70;99.90;;;;;;5079437;28;20230;-89
2021/08/20 05:45:10;;;;;;;6.97;5.03;;;15.80;99.90;;;;;;5079340;28;20185;-89
2021/08/20 05:47:36;;;;;;;6.60;4.73;;;15.80;99.90;;;;;;5079952;28;20207;-90
2021/08/20 05:50:03;;;;;;;6.50;4.57;;;15.90;99.90;;;;;;5078939;28;20198;-90
2021/08/20 05:52:28;;;;;;;7.57;5.60;;;15.90;99.90;;;;;;5078879;28;20182;-89
2021/08/20 05:54:54;;;;;;;5.93;5.00;;;15.90;99.90;;;;;;5078979;28;20185;-90
2021/08/20 05:57:20;;;;;;;5.80;5.00;;;16.00;99.90;;;;;;5079950;28;20243;-89
2021/08/20 05:59:45;;;;;;;5.83;4.77;;;16.00;99.90;;;;;;5078688;28;20182;-90
2021/08/20 06:02:11;;;;;;;8.33;4.63;;;16.00;99.90;;;;;;5078716;28;20179;-90
2021/08/20 06:04:37;;;;;;;6.37;4.70;;;16.00;99.90;;;;;;5080052;28;20702;-90
2021/08/20 06:07:05;;;;;;;6.57;4.77;;;16.00;99.90;;;;;;5079217;28;20201;-90
2021/08/20 06:09:31;;;;;;;5.83;4.83;;;16.10;99.90;;;;;;5079013;28;20182;-90
2021/08/20 06:11:57;;;;;;;10.20;4.60;;;16.20;99.90;;;;;;5078769;28;20581;-90
2021/08/20 06:14:22;;;;;;;7.60;5.20;;;16.30;99.90;;;;;;5078642;28;20248;-89
2021/08/20 06:16:48;;;;;;;6.67;5.43;;;16.30;99.90;;;;;;5077856;28;20197;-90
2021/08/20 06:19:14;;;;;;;5.93;4.90;;;16.30;99.90;;;;;;5078527;28;20180;-90
2021/08/20 06:21:39;;;;;;;8.63;5.50;;;16.30;99.90;;;;;;5078476;28;20184;-89
2021/08/20 06:24:05;;;;;;;5.63;4.90;;;16.30;99.90;;;;;;5078501;28;20631;-89
2021/08/20 06:26:31;;;;;;;6.07;4.87;;;16.40;99.90;;;;;;5077976;28;20210;-90
2021/08/20 06:28:57;;;;;;;7.10;4.93;;;16.50;99.90;;;;;;5078266;28;20181;-90
2021/08/20 06:31:23;;;;;;;6.80;5.03;;;16.40;99.90;;;;;;5088435;28;20210;-89
2021/08/20 06:33:50;;;;;;;6.50;5.30;;;16.40;99.90;;;;;;5096669;28;20242;-89
2021/08/20 06:36:16;;;;;;;7.03;5.47;;;16.50;99.90;;;;;;5099890;28;20200;-90
2021/08/20 06:38:42;;;;;;;7.37;5.00;;;16.40;99.90;;;;;;5099197;28;20256;-90
2021/08/20 06:41:07;;;;;;;6.23;4.80;;;16.50;99.90;;;;;;5082457;28;20212;-89
2021/08/20 06:43:33;;;;;;;6.10;4.83;;;16.50;99.90;;;;;;5076723;28;20182;-90
2021/08/20 06:45:58;;;;;;;6.50;4.73;;;16.50;99.90;;;;;;5076644;28;20256;-89
2021/08/20 06:48:24;;;;;;;7.40;4.97;;;16.50;99.90;;;;;;5076453;28;20184;-89
2021/08/20 06:50:51;;;;;;;6.23;4.50;;;16.60;99.90;;;;;;5076351;28;20266;-89
2021/08/20 06:53:17;;;;;;;5.73;4.80;;;16.60;99.90;;;;;;5076748;28;20177;-89
2021/08/20 06:55:43;;;;;;;6.70;4.63;;;16.60;99.90;;;;;;5077948;28;20583;-89
2021/08/20 06:58:08;;;;;;;6.30;4.80;;;16.70;99.90;;;;;;5079635;28;20291;-89
2021/08/20 07:00:34;;;;;;;5.23;4.73;;;16.80;99.90;;;;;;5078182;28;20272;-89
2021/08/20 07:02:59;;;;;;;6.47;4.97;;;16.80;99.90;;;;;;5076135;28;20723;-89
2021/08/20 07:05:25;;;;;;;6.87;5.13;;;16.90;99.90;;;;;;5076898;28;20538;-89
2021/08/20 07:07:51;;;;;;;6.30;4.57;;;16.90;99.90;;;;;;5075719;28;20212;-89
2021/08/20 07:10:17;;;;;;;7.10;4.73;;;17.00;99.90;;;;;;5075825;28;20668;-89
2021/08/20 07:12:43;;;;;;;7.17;4.63;;;17.10;99.90;;;;;;5076411;28;20260;-89
2021/08/20 07:15:11;;;;;;;7.87;4.50;;;17.20;99.90;;;;;;5075512;28;20177;-89
2021/08/20 07:17:38;;;;;;;5.70;4.87;;;17.30;99.90;;;;;;5076678;28;20194;-89
2021/08/20 07:20:04;;;;;;;8.97;4.73;;;17.30;99.90;;;;;;5075559;28;20174;-89
2021/08/20 07:22:30;;;;;;;6.40;4.73;;;17.40;99.90;;;;;;5075564;28;20646;-88
2021/08/20 07:24:56;;;;;;;8.90;5.27;;;17.50;99.90;;;;;;5075192;28;20273;-89
2021/08/20 07:27:22;;;;;;;15.73;5.47;;;17.50;99.90;;;;;;5074087;28;20553;-89
2021/08/20 07:29:49;;;;;;;7.13;4.40;;;17.50;99.90;;;;;;5075119;28;20177;-88
2021/08/20 07:32:15;;;;;;;11.30;4.70;;;17.60;99.90;;;;;;5076325;28;20171;-88
2021/08/20 07:34:41;;;;;;;6.30;4.53;;;17.70;99.90;;;;;;5075160;28;20319;-89
2021/08/20 07:37:06;;;;;;;6.03;4.40;;;17.80;99.90;;;;;;5075921;28;20275;-89
2021/08/20 07:39:36;;;;;;;4.93;4.03;;;17.90;99.90;;;;;;5074947;28;20178;-88
2021/08/20 07:42:03;;;;;;;5.77;4.30;;;18.00;99.90;;;;;;5074910;28;20190;-89
2021/08/20 07:44:28;;;;;;;7.73;4.90;;;18.20;99.90;;;;;;5074621;28;20175;-89
2021/08/20 07:46:54;;;;;;;4.63;3.73;;;18.30;99.90;;;;;;5074662;28;20665;-89
2021/08/20 07:49:20;;;;;;;6.47;4.47;;;18.40;99.90;;;;;;5074475;28;20186;-89
2021/08/20 07:51:45;;;;;;;5.70;4.50;;;18.60;99.90;;;;;;5074493;28;20261;-89
2021/08/20 07:54:11;;;;;;;5.33;4.33;;;18.70;99.90;;;;;;5074665;28;20175;-89
2021/08/20 07:56:36;;;;;;;5.60;4.40;;;18.70;99.90;;;;;;5074549;28;20794;-88
2021/08/20 07:59:02;;;;;;;6.03;4.47;;;18.70;99.90;;;;;;5074541;28;20546;-89
2021/08/20 08:01:28;;;;;;;6.43;4.10;;;18.80;99.90;;;;;;5074337;28;20243;-89
2021/08/20 08:03:57;;;;;;;6.07;4.20;;;18.90;99.90;;;;;;5074378;28;20270;-89
2021/08/20 08:06:24;;;;;;;7.93;4.67;;;19.10;99.90;;;;;;5074532;28;20673;-88
2021/08/20 08:08:50;;;;;;;5.67;4.07;;;19.20;99.90;;;;;;5074495;28;20345;-88
2021/08/20 08:11:16;;;;;;;5.77;4.80;;;19.20;99.90;;;;;;5078289;28;20240;-88
2021/08/20 08:13:42;;;;;;;4.53;3.93;;;19.30;99.90;;;;;;5078457;28;20206;-88
2021/08/20 08:16:08;;;;;;;5.33;4.57;;;19.30;99.90;;;;;;5079505;28;20176;-88
2021/08/20 08:18:34;;;;;;;7.00;4.53;;;19.50;99.90;;;;;;5075314;28;20176;-88
2021/08/20 08:20:59;;;;;;;8.00;3.83;;;19.60;99.90;;;;;;5074199;28;20181;-88
2021/08/20 08:23:25;;;;;;;6.13;3.90;;;19.70;99.90;;;;;;5073732;28;20180;-88
2021/08/20 08:25:51;;;;;;;5.20;4.30;;;19.80;99.90;;;;;;5075158;28;20177;-89
2021/08/20 08:28:18;;;;;;;5.93;3.70;;;20.00;99.90;;;;;;5075252;28;20601;-88
2021/08/20 08:30:47;;;;;;;5.60;4.50;;;20.00;99.90;;;;;;5075220;28;20197;-89
2021/08/20 08:33:13;;;;;;;6.63;4.70;;;20.30;99.90;;;;;;5073737;28;20645;-89
2021/08/20 08:35:39;;;;;;;5.60;3.97;;;20.40;99.90;;;;;;5074092;28;20176;-89
2021/08/20 08:38:11;;;;;;;6.80;3.80;;;20.70;99.90;;;;;;5073320;28;20620;-89
2021/08/20 08:40:41;;;;;;;4.37;3.50;;;20.90;99.90;;;;;;5073816;28;20185;-89
2021/08/20 08:43:08;;;;;;;6.37;3.17;;;21.00;99.90;;;;;;5073559;28;20249;-89
2021/08/20 08:45:34;;;;;;;2.40;2.20;;;21.30;99.90;;;;;;5073839;28;20177;-89
2021/08/20 08:48:06;;;;;;;1.90;1.67;;;21.50;99.90;;;;;;5073700;28;20211;-89
2021/08/20 08:50:33;;;;;;;2.10;1.90;;;21.60;99.90;;;;;;5074558;28;20203;-89
2021/08/20 08:52:59;;;;;;;2.53;2.23;;;21.70;99.90;;;;;;5073408;28;20234;-88
2021/08/20 08:55:25;;;;;;;4.37;2.37;;;21.80;99.90;;;;;;5073541;28;20655;-88
2021/08/20 08:57:51;;;;;;;4.07;2.37;;;22.00;99.90;;;;;;5073640;28;20258;-89
2021/08/20 09:00:34;;;;;;;5.43;2.40;;;22.20;99.90;;;;;;5073853;28;20173;-89
2021/08/20 09:02:59;;;;;;;2.93;2.40;;;22.30;99.90;;;;;;5073512;28;20278;-89
2021/08/20 09:05:25;;;;;;;2.10;1.90;;;22.30;99.90;;;;;;5073775;28;20177;-89
2021/08/20 09:07:54;;;;;;;2.97;2.13;;;22.30;99.90;;;;;;5074946;28;20209;-89
2021/08/20 09:10:25;;;;;;;2.40;1.87;;;22.40;99.90;;;;;;5077225;28;20201;-89
2021/08/20 09:12:52;;;;;;;3.37;2.13;;;22.50;99.90;;;;;;5079434;28;20179;-89
2021/08/20 09:15:19;;;;;;;3.87;3.20;;;22.20;99.90;;;;;;5084319;28;20177;-89
2021/08/20 09:17:59;;;;;;;4.73;3.37;;;21.90;99.90;;;;;;5073445;28;20205;-89
2021/08/20 09:20:30;;;;;;;5.47;3.83;;;21.80;99.90;;;;;;5073602;28;20185;-89
2021/08/20 09:23:01;;;;;;;6.60;3.97;;;21.90;99.90;;;;;;5074493;28;20170;-89
2021/08/20 09:25:38;;;;;;;4.97;3.50;;;21.90;99.90;;;;;;5073429;28;20289;-89
2021/08/20 09:28:17;;;;;;;4.63;3.10;;;22.30;99.90;;;;;;5073136;28;20197;-89
2021/08/20 09:30:53;;;;;;;5.30;3.03;;;22.70;99.90;;;;;;5073209;28;20212;-89
2021/08/20 09:33:21;;;;;;;2.93;2.63;;;23.10;99.90;;;;;;5073041;28;20200;-89
2021/08/20 09:36:21;;;;;;;4.00;2.67;;;23.00;99.90;;;;;;5073195;28;20581;-89
2021/08/20 09:38:50;;;;;;;3.97;2.60;;;23.00;99.90;;;;;;5072305;28;20683;-89
2021/08/20 09:41:27;;;;;;;3.90;3.50;;;23.30;99.90;;;;;;5073305;28;20177;-89
2021/08/20 09:44:02;;;;;;;3.67;2.60;;;23.60;99.90;;;;;;5073101;28;20183;-89
2021/08/20 09:46:46;;;;;;;3.80;2.73;;;23.90;99.90;;;;;;5073098;28;20203;-89
2021/08/20 09:49:14;;;;;;;3.73;2.30;;;24.30;99.90;;;;;;5073160;28;20266;-89
2021/08/20 09:51:41;;;;;;;4.60;2.70;;;24.10;99.90;;;;;;5076303;28;20246;-89
2021/08/20 09:54:26;;;;;;;4.03;2.90;;;23.70;99.90;;;;;;5077191;28;20184;-89
2021/08/20 09:56:52;;;;;;;3.07;2.73;;;23.30;99.90;;;;;;5077256;28;20208;-89
2021/08/20 09:59:18;;;;;;;4.83;3.17;;;22.90;99.90;;;;;;5077437;28;20305;-88
2021/08/20 10:01:46;;;;;;;3.60;3.00;;;22.50;99.90;;;;;;5077624;28;20623;-88
2021/08/20 10:04:23;;;;;;;6.03;3.20;;;22.30;99.90;;;;;;5077552;28;20266;-89
2021/08/20 10:06:50;;;;;;;4.17;2.90;;;22.20;99.90;;;;;;5078442;28;20729;-89
2021/08/20 10:09:18;;;;;;;3.90;2.57;;;22.70;99.90;;;;;;5078903;28;20185;-88
2021/08/20 10:11:48;;;;;;;3.97;2.43;;;23.30;99.90;;;;;;5078141;28;20221;-89
2021/08/20 10:14:14;;;;;;;4.20;3.20;;;23.90;99.90;;;;;;5077523;28;20173;-89
2021/08/20 10:16:42;;;;;;;3.10;2.77;;;24.20;99.90;;;;;;5077685;28;20198;-89
2021/08/20 10:19:09;;;;;;;4.23;2.73;;;24.40;99.90;;;;;;5077726;28;20175;-89
2021/08/20 10:21:37;;;;;;;2.90;2.60;;;24.40;99.90;;;;;;5077623;28;20208;-89
2021/08/20 10:24:05;;;;;;;3.37;2.80;;;23.90;99.90;;;;;;5077417;28;20175;-89
2021/08/20 10:26:32;;;;;;;4.83;3.20;;;23.50;99.90;;;;;;5075941;28;20203;-89
2021/08/20 10:29:00;;;;;;;4.17;3.00;;;23.70;99.90;;;;;;5076450;28;20186;-89
2021/08/20 10:31:26;;;;;;;3.93;3.03;;;24.00;99.90;;;;;;5076029;28;20219;-89
2021/08/20 10:33:52;;;;;;;3.07;2.67;;;24.20;99.90;;;;;;5076287;28;20191;-89
2021/08/20 10:36:35;;;;;;;3.77;3.10;;;24.60;99.90;;;;;;5077819;28;20173;-89
2021/08/20 10:39:02;;;;;;;4.43;2.90;;;24.90;99.90;;;;;;5076696;28;20181;-89
2021/08/20 10:41:28;;;;;;;4.00;2.67;;;25.00;99.90;;;;;;5075959;28;20580;-89
2021/08/20 10:43:57;;;;;;;5.03;2.83;;;24.80;99.90;;;;;;5075913;28;20185;-89
2021/08/20 10:46:36;;;;;;;2.77;2.57;;;24.70;99.90;;;;;;5076489;28;20199;-89
2021/08/20 10:51:56;;;;;;;4.30;2.50;;;25.10;99.90;;;;;;5077500;28;20706;-89
2021/08/20 10:54:41;;;;;;;3.00;2.53;;;25.50;99.90;;;;;;5077543;28;20171;-89
2021/08/20 10:57:10;;;;;;;3.33;2.60;;;25.60;99.90;;;;;;5075797;28;20195;-88
2021/08/20 10:59:47;;;;;;;4.60;2.67;;;25.80;99.90;;;;;;5076917;28;20179;-88
2021/08/20 11:02:18;;;;;;;2.90;2.60;;;25.80;99.90;;;;;;5075459;28;20183;-89
2021/08/20 11:05:03;;;;;;;3.10;2.57;;;25.70;99.90;;;;;;5075455;28;20182;-89
2021/08/20 11:07:35;;;;;;;3.13;2.63;;;25.70;99.90;;;;;;5074952;28;20218;-89
2021/08/20 11:10:10;;;;;;;3.37;2.57;;;25.80;99.90;;;;;;5075429;28;20194;-89
2021/08/20 11:12:52;;;;;;;3.33;2.50;;;25.90;99.90;;;;;;5075485;28;20183;-88
2021/08/20 11:15:18;;;;;;;2.90;2.43;;;25.90;99.90;;;;;;5075178;28;20656;-89
2021/08/20 11:17:53;;;;;;;3.40;2.80;;;25.90;99.90;;;;;;5074662;28;20200;-89
2021/08/20 11:20:27;;;;;;;4.37;3.13;;;25.50;99.90;;;;;;5076623;28;20729;-85
2021/08/20 11:23:05;;;;;;;3.70;2.70;;;25.20;99.90;;;;;;5077897;28;20177;-85
2021/08/20 11:25:51;;;;;;;3.93;2.63;;;25.30;99.90;;;;;;5076627;28;20191;-85
2021/08/20 11:28:21;;;;;;;3.03;2.73;;;25.60;99.90;;;;;;5079069;28;20202;-85
2021/08/20 11:31:03;;;;;;;3.00;2.70;;;25.90;99.90;;;;;;5078265;28;20202;-86
2021/08/20 11:33:37;;;;;;;3.30;3.00;;;25.90;99.90;;;;;;5081438;28;20176;-85
2021/08/20 11:36:08;;;;;;;4.43;2.70;;;26.30;99.90;;;;;;5092834;28;20189;-86
2021/08/20 11:38:41;;;;;;;3.87;2.73;;;26.30;99.90;;;;;;5078239;28;20529;-86
2021/08/20 11:41:10;;;;;;;3.03;2.60;;;26.20;99.90;;;;;;5085106;28;20247;-86
2021/08/20 11:43:36;;;;;;;5.00;3.03;;;25.70;99.90;;;;;;5079737;28;20187;-87
2021/08/20 11:46:06;;;;;;;2.63;2.43;;;25.80;99.90;;;;;;5080707;28;20243;-88
2021/08/20 11:48:44;;;;;;;3.13;2.83;;;26.00;99.90;;;;;;5075420;28;20191;-89
2021/08/20 11:51:11;;;;;;;2.77;2.47;;;26.20;99.90;;;;;;5076621;28;20201;-89
2021/08/20 11:53:38;;;;;;;4.30;2.50;;;26.20;99.90;;;;;;5074820;28;20267;-89
2021/08/20 11:56:15;;;;;;;3.23;2.90;;;26.00;99.90;;;;;;5076422;28;20183;-88
2021/08/20 11:58:42;;;;;;;4.23;2.80;;;25.60;99.90;;;;;;5075476;28;20193;-89
2021/08/20 12:01:12;;;;;;;3.67;2.90;;;24.90;99.90;;;;;;5077159;28;20184;-88
2021/08/20 12:03:46;;;;;;;3.83;2.50;;;24.40;99.90;;;;;;5076234;28;20186;-88
2021/08/20 12:06:13;;;;;;;3.20;2.60;;;24.20;99.90;;;;;;5077247;28;20189;-88
2021/08/20 12:08:39;;;;;;;4.13;3.00;;;24.80;99.90;;;;;;5077250;28;20194;-89
2021/08/20 12:11:06;;;;;;;3.60;2.97;;;25.50;99.90;;;;;;5081729;28;20720;-88
2021/08/20 12:13:47;;;;;;;3.07;2.77;;;26.00;99.90;;;;;;5086906;28;20190;-88
2021/08/20 12:16:34;;;;;;;4.17;2.90;;;26.40;99.90;;;;;;5084034;28;20610;-89
2021/08/20 12:19:23;;;;;;;4.20;3.03;;;26.90;99.90;;;;;;5073971;28;20240;-88
2021/08/20 12:22:13;;;;;;;3.03;2.50;;;27.30;99.90;;;;;;5074283;28;20185;-88
2021/08/20 12:24:41;;;;;;;3.80;2.93;;;26.80;99.90;;;;;;5073606;28;20185;-88
2021/08/20 12:27:21;;;;;;;3.37;2.93;;;26.20;99.90;;;;;;5073647;28;20211;-87
2021/08/20 12:29:59;;;;;;;3.43;2.83;;;25.90;99.90;;;;;;5074043;28;20274;-88
2021/08/20 12:32:25;;;;;;;3.37;2.50;;;25.90;99.90;;;;;;5074557;28;20188;-87
2021/08/20 12:35:04;;;;;;;3.10;2.80;;;25.80;99.90;;;;;;5074286;28;20584;-88
2021/08/20 12:37:30;;;;;;;5.20;3.20;;;26.10;99.90;;;;;;5074110;28;20204;-88
2021/08/20 12:40:05;;;;;;;7.37;3.43;;;26.30;99.90;;;;;;5074473;28;20180;-87
2021/08/20 12:42:32;;;;;;;5.67;2.90;;;26.70;99.90;;;;;;5073983;28;20168;-87
2021/08/20 12:45:21;;;;;;;3.27;2.70;;;26.90;99.90;;;;;;5075262;28;20212;-87
2021/08/20 12:48:03;;;;;;;3.37;3.03;;;26.70;99.90;;;;;;5074170;28;20287;-87
2021/08/20 12:50:35;;;;;;;3.97;3.43;;;26.90;99.90;;;;;;5073925;28;20296;-88
2021/08/20 12:53:01;;;;;;;5.33;3.17;;;27.10;99.90;;;;;;5073871;28;20180;-88